Tiempo atmosférico en la estación meteorológica de Brozas , Cáceres (411 m.)



Fecha
DESCASC
Temp. máxima en grados centígrados (hora)
DESCASC
Temp. mínima en grados centígrados (hora)
DESCASC
Temp. media en grados centígrados
DESCASC
Racha de viento máxima en m/sg (hora)
DESCASC
Velocidad máxima media en intervalos de 10 minutos(hora)
DESCASC
Precipitaciones diarias en mm
DESCASC
Precipitaciones de 00:00 a 06:00 en mm
DESCASC
Precipitaciones de 06:00 a 12:00 en mm
DESCASC
Precipitaciones de 12:00 a 18:00 en mm
DESCASC
Precipitaciones de 18:00 a 24:00 en mm
DESCASC
29-03-2020 19.1 (17:00) 7.9 (04:40) 13.5 5 (03:40) 4.72 (03:40) 0 0 0 0 0
28-03-2020 15.8 (15:20) 3.7 (04:50) 9.8 10.28 (09:30) 6.94 (08:30) 0 0 0 0 0
27-03-2020 13.2 (14:40) 4.5 (07:30) 8.8 14.72 (10:00) 10 (10:00) 0 0 0 0 0
26-03-2020 19.1 (16:10) 7.2 (00:00) 13.2 10.56 (18:20) 8.06 (18:20) 0 0 0 0 0
25-03-2020 18.9 (16:30) 7.6 (00:00) 13.2 10 (20:40) 7.5 (20:40) 0 0 0 0 0
24-03-2020 16.3 (16:10) 9.1 (00:00) 12.7 16.67 (10:00) 11.39 (10:10) 0 0 0 0 0
23-03-2020 15.5 (14:40) 7.6 (00:00) 11.5 11.94 (16:20) 8.06 (11:40) 0 0 0 0 0
22-03-2020 15.1 (16:30) 5.7 (08:20) 10.4 7.22 (11:20) 5 (11:20) 0.4 0 0.2 0 0.2
21-03-2020 13 (14:50) 7.4 (00:00) 10.2 8.61 (15:50) 5.83 (17:10) 40.8 21 7.2 0.4 12.2
20-03-2020 12.5 (00:00) 9.1 (00:00) 10.8 10 (05:30) 6.39 (05:00) 67.2 2.6 33.8 12.6 18.2
19-03-2020 18 (16:10) 9 (00:00) 13.5 11.67 (14:30) 8.61 (14:30) 0 0 0 0 0
18-03-2020 19.1 (14:50) 11.3 (00:00) 15.2 16.67 (06:40) 11.67 (07:20) 0 0 0 0 0
17-03-2020 16 (16:00) 2.9 (00:00) 9.5 12.5 (13:50) 8.61 (23:59) 0.2 0.2 0 0 0
16-03-2020 9.4 (12:50) 1.5 (00:00) 5.4 16.94 (14:10) 11.11 (10:40) -- 0 0 -- 1.4
15-03-2020 20.1 (14:00) 5.6 (00:00) 12.9 14.17 (15:30) 11.11 (15:00) 0 0 0 0 0
14-03-2020 22.3 (16:20) 7.5 (00:00) 14.9 6.11 (12:40) 3.89 (05:00) 0 0 0 0 0
13-03-2020 19.9 (16:30) 9.4 (08:00) 14.6 5.56 (20:30) 4.17 (18:10) 0 0 0 0 0
12-03-2020 24.2 (15:20) 13.5 (00:00) 18.9 4.72 (00:10) 4.44 (00:10) -- 0 0 -- 0
11-03-2020 24.2 (14:20) 13.5 (00:00) 18.9 5.28 (20:40) 4.72 (20:50) 0 0 0 0 0
10-03-2020 22.9 (16:30) 8.6 (00:00) 15.8 6.11 (00:10) 5.28 (04:00) 0 0 0 0 0
09-03-2020 19.6 (17:20) 5.4 (00:00) 12.5 7.78 (15:00) 5.83 (23:20) 0 0 0 0 0
08-03-2020 14.7 (18:10) 5.6 (00:00) 10.1 6.94 (17:50) 5.28 (17:50) 0 0 0 0 0
07-03-2020 16.3 (17:00) 3.7 (00:00) 10 10 (01:20) 8.33 (01:00) 0 0 0 0 0
06-03-2020 14.4 (15:20) 6.2 (00:00) 10.3 12.78 (17:00) 10 (17:00) 0 0 0 0 0
05-03-2020 15 (15:30) 7.3 (00:00) 11.2 15.28 (17:00) 11.67 (15:40) 0.6 0 0.6 0 0
04-03-2020 16.5 (14:50) 10.6 (00:00) 13.6 9.17 (04:10) 7.22 (04:10) 0 0 0 0 0
03-03-2020 15.6 (14:30) 6.8 (00:00) 11.2 14.44 (10:40) 10.83 (15:00) 0 0 0 0 0
02-03-2020 13.6 (15:20) 6.2 (00:00) 9.9 18.61 (04:40) 13.89 (13:40) 1.4 1.4 0 0 0
01-03-2020 15.5 (15:50) 9.2 (00:00) 12.3 14.44 (23:10) 10.83 (23:10) 5.2 0.2 0 3.2 1.8
29-02-2020 15.8 (15:30) 7.7 (00:00) 11.8 15 (15:30) 10.83 (15:40) 0.6 0 0 0.6 0

Gráficas

Temp. máximas Temp. mínimas Temp. medias Precipitaciones Rachas de viento máximas Velocidades máximas media en intervalos de 10 minutos

Datos horarios

Fecha y hora oficial Temperatura (ºC) Velocidad del viento (km/h) Dirección del viento Racha (km/h) Dirección de racha Precipitación (mm) Presión (hPa) Tendencia (hPa) Humedad (%)
2020-03-29 23:00:00 12 7 Noroeste 13 Noroeste 0 -- -- 73
2020-03-29 22:00:00 12.7 12 Noroeste 15 Noroeste 0 -- -- 75
2020-03-29 21:00:00 14 12 Oeste 14 Oeste 0 -- -- 70
2020-03-29 20:00:00 16.7 3 Sur 5 Sudeste 0 -- -- 58
2020-03-29 19:00:00 17.2 3 Sur 11 Sur 0 -- -- 51
2020-03-29 18:00:00 17.9 8 Sur 17 Sudoeste 0 -- -- 49
2020-03-29 17:00:00 19.1 5 Oeste 13 Sudoeste 0 -- -- 48
2020-03-29 16:00:00 17.7 5 Sudeste 14 Sudeste 0 -- -- 50
2020-03-29 15:00:00 17 4 Nordeste 9 Noroeste 0 -- -- 54
2020-03-29 14:00:00 16.8 3 Nordeste 14 Sur 0 -- -- 48
2020-03-29 13:00:00 16.8 4 Sudeste 14 Este 0 -- -- 53
2020-03-29 12:00:00 15.7 5 Sur 10 Sudeste 0 -- -- 62
2020-03-29 11:00:00 13.9 4 Sudeste 10 Este 0 -- -- 61
2020-03-29 10:00:00 10.9 7 Nordeste 13 Nordeste 0 -- -- 70
2020-03-29 09:00:00 8.5 6 Este 8 Este 0 -- -- 71
2020-03-29 08:00:00 9.1 5 Sudeste 10 Sudeste 0 -- -- 67
2020-03-29 07:00:00 8.2 8 Sudeste 10 Sudeste 0 -- -- 79
2020-03-29 06:00:00 8.2 6 Sur 8 Sur 0 -- -- 78
2020-03-29 05:00:00 8 5 Este 16 Nordeste 0 -- -- 81
2020-03-29 03:00:00 9.8 14 Nordeste 15 Nordeste 0 -- -- 72
2020-03-29 01:00:00 10.2 13 Nordeste 14 Nordeste 0 -- -- 69
2020-03-29 00:00:00 10.5 10 Nordeste 10 Nordeste 0 -- -- 68
2020-03-28 23:00:00 12.3 6 Nordeste 10 Nordeste 0 -- -- 57
2020-03-28 22:00:00 13 2 Norte -- -- 0 -- -- 53
2020-03-28 21:00:00 13 2 Noroeste 2 Norte 0 -- -- 53
2020-03-28 20:00:00 13.3 0 Calma -- -- 0 -- -- 55
2020-03-28 19:00:00 14.2 4 Sur 18 Sudeste 0 -- -- 60
2020-03-28 18:00:00 15.8 10 Este 24 Este 0 -- -- 51
2020-03-28 17:00:00 15.5 14 Sudeste 23 Sudeste 0 -- -- 54
2020-03-28 16:00:00 15.3 14 Sudeste 28 Este 0 -- -- 55
2020-03-28 15:00:00 15.4 18 Este 32 Este 0 -- -- 55
2020-03-28 14:00:00 14.9 21 Sudeste 36 Sudeste 0 -- -- 56
2020-03-28 13:00:00 14.3 16 Sudeste 31 Sudeste 0 -- -- 59
2020-03-28 12:00:00 12.9 15 Este 31 Este 0 -- -- 61
2020-03-28 11:00:00 11.2 17 Este 34 Este 0 -- -- 62
2020-03-28 10:00:00 8.4 23 Este 37 Este 0 -- -- 77
2020-03-28 09:00:00 6.8 22 Este 35 Este 0 -- -- 83
2020-03-28 08:00:00 4.9 19 Este 29 Este 0 -- -- 90
2020-03-28 07:00:00 4.4 19 Este 26 Nordeste 0 -- -- 91
2020-03-28 06:00:00 3.8 16 Nordeste 23 Nordeste 0 -- -- 92
2020-03-28 05:00:00 3.8 15 Nordeste 24 Nordeste 0 -- -- 92
2020-03-28 04:00:00 4.2 21 Nordeste 25 Nordeste 0 -- -- 90
2020-03-28 03:00:00 4.3 16 Nordeste 21 Nordeste 0 -- -- 88
2020-03-28 02:00:00 4.4 13 Nordeste 17 Nordeste 0 -- -- 85
2020-03-28 01:00:00 5.7 8 Este 17 Este 0 -- -- 78
2020-03-28 00:00:00 6.9 9 Este 21 Este 0 -- -- 73
2020-03-27 23:00:00 6.6 15 Este 23 Este 0 -- -- 73
2020-03-27 22:00:00 7 18 Este 28 Este 0 -- -- 73
2020-03-27 21:00:00 6.6 10 Nordeste 20 Este 0 -- -- 71
2020-03-27 20:00:00 9.2 14 Este 32 Este 0 -- -- 58
2020-03-27 19:00:00 10.9 19 Este 35 Este 0 -- -- 56
2020-03-27 18:00:00 12.6 18 Este 33 Este 0 -- -- 51
2020-03-27 17:00:00 13.1 20 Este 43 Este 0 -- -- 54
2020-03-27 16:00:00 13.1 25 Este 42 Este 0 -- -- 53
2020-03-27 15:00:00 13 27 Este 46 Nordeste 0 -- -- 54
2020-03-27 14:00:00 13.1 26 Este 42 Este 0 -- -- 60
2020-03-27 13:00:00 12.9 22 Este 39 Este 0 -- -- 64
2020-03-27 12:00:00 12.2 23 Este 38 Este 0 -- -- 63
2020-03-27 11:00:00 10.8 26 Nordeste 50 Este 0 -- -- 65
2020-03-27 10:00:00 9 36 Este 53 Este 0 -- -- 65
2020-03-27 09:00:00 7.3 28 Nordeste 39 Nordeste 0 -- -- 69
2020-03-27 08:00:00 5 23 Nordeste 31 Nordeste 0 -- -- 82
2020-03-27 07:00:00 4.7 18 Nordeste 27 Nordeste 0 -- -- 84
2020-03-27 06:00:00 5.4 19 Nordeste 27 Nordeste 0 -- -- 86
2020-03-27 05:00:00 4.6 11 Norte 16 Nordeste 0 -- -- 91
2020-03-27 04:00:00 5.5 10 Noroeste 14 Noroeste 0 -- -- 90
2020-03-27 03:00:00 5.9 13 Noroeste 15 Noroeste 0 -- -- 89
2020-03-27 02:00:00 6.2 13 Noroeste 16 Noroeste 0 -- -- 89
2020-03-27 01:00:00 6.6 13 Noroeste 17 Noroeste 0 -- -- 88
2020-03-27 00:00:00 7.5 12 Noroeste 20 Noroeste 0 -- -- 85
2020-03-26 23:00:00 8.2 14 Noroeste 24 Noroeste 0 -- -- 85
2020-03-26 22:00:00 9.9 21 Oeste 32 Oeste 0 -- -- 80
2020-03-26 21:00:00 11.4 24 Oeste 30 Oeste 0 -- -- 76
2020-03-26 20:00:00 12.8 23 Oeste 33 Oeste 0 -- -- 72
2020-03-26 19:00:00 15.7 24 Oeste 38 Oeste 0 -- -- 62
2020-03-26 18:00:00 17.6 28 Oeste 37 Oeste 0 -- -- 58
2020-03-26 17:00:00 18.9 26 Oeste 35 Oeste 0 -- -- 49
2020-03-26 16:00:00 18.9 18 Noroeste 29 Oeste 0 -- -- 46
2020-03-26 15:00:00 18.2 17 Noroeste 36 Oeste 0 -- -- 43
2020-03-26 14:00:00 17.2 24 Noroeste 37 Oeste 0 -- -- 47
2020-03-26 13:00:00 16.2 15 Noroeste 28 Noroeste 0 -- -- 55
2020-03-26 12:00:00 14.5 13 Noroeste 23 Noroeste 0 -- -- 67
2020-03-26 11:00:00 13.6 14 Noroeste 19 Oeste 0 -- -- 66
2020-03-26 10:00:00 11.4 15 Noroeste 19 Noroeste 0 -- -- 79
2020-03-26 09:00:00 9.2 13 Noroeste 15 Noroeste 0 -- -- 85
2020-03-26 08:00:00 7.3 11 Noroeste 15 Noroeste 0 -- -- 90
2020-03-26 07:00:00 7.3 14 Noroeste 17 Noroeste 0 -- -- 89
2020-03-26 06:00:00 7.7 8 Oeste 15 Noroeste 0 -- -- 88
2020-03-26 05:00:00 8.3 13 Noroeste 16 Noroeste 0 -- -- 88
2020-03-26 04:00:00 8.4 6 Noroeste 19 Noroeste 0 -- -- 88
2020-03-26 03:00:00 9.4 17 Noroeste 21 Noroeste 0 -- -- 86
2020-03-26 02:00:00 9.9 14 Noroeste 21 Noroeste 0 -- -- 85
2020-03-26 01:00:00 10.4 18 Noroeste 21 Noroeste 0 -- -- 84
2020-03-26 00:00:00 11.9 18 Noroeste 27 Noroeste 0 -- -- 81
2020-03-25 23:00:00 12.7 16 Noroeste 29 Oeste 0 -- -- 78
2020-03-25 22:00:00 12.4 20 Oeste 31 Oeste 0 -- -- 80
2020-03-25 21:00:00 13.8 25 Oeste 36 Oeste 0 -- -- 78
2020-03-25 20:00:00 14.4 19 Oeste 24 Oeste 0 -- -- 69
2020-03-25 19:00:00 15.9 15 Oeste 27 Oeste 0 -- -- 65
2020-03-25 18:00:00 17.7 17 Oeste 23 Oeste 0 -- -- 56
2020-03-25 17:00:00 17.9 16 Oeste 22 Oeste 0 -- -- 58
2020-03-25 16:00:00 18.4 11 Oeste 21 Noroeste 0 -- -- 59
2020-03-25 15:00:00 17.8 10 Oeste 21 Oeste 0 -- -- 62
2020-03-25 14:00:00 17.4 10 Oeste 19 Oeste 0 -- -- 61
2020-03-25 13:00:00 16.6 7 Noroeste 12 Oeste 0 -- -- 61
2020-03-25 12:00:00 15.3 5 Oeste 12 Oeste 0 -- -- 63
2020-03-25 11:00:00 14.5 3 Oeste 9 Sur 0 -- -- 62
2020-03-25 10:00:00 13.3 5 Sudeste 13 Nordeste 0 -- -- 69
2020-03-25 09:00:00 10.4 9 Nordeste 13 Este 0 -- -- 82
2020-03-25 08:00:00 7.7 12 Nordeste 16 Nordeste 0 -- -- 90
2020-03-25 07:00:00 7.8 13 Nordeste 18 Nordeste 0 -- -- 90
2020-03-25 06:00:00 8.7 14 Nordeste 18 Nordeste 0 -- -- 90
2020-03-25 05:00:00 8.5 7 Nordeste 14 Este 0 -- -- 86
2020-03-25 04:00:00 8.8 8 Este 19 Este 0 -- -- 82
2020-03-25 03:00:00 10.2 12 Este 18 Sudeste 0 -- -- 76
2020-03-25 02:00:00 10 5 Este 15 Sudeste 0 -- -- 79
2020-03-25 01:00:00 9.7 8 Sudeste 15 Sudeste 0 -- -- 81
2020-03-25 00:00:00 11.3 11 Sudeste 18 Este 0 -- -- 76
2020-03-24 23:00:00 12.1 11 Este 22 Sudeste 0 -- -- 74
2020-03-24 22:00:00 12.6 17 Este 23 Este 0 -- -- 71
2020-03-24 21:00:00 12.8 14 Este 23 Este 0 -- -- 71
2020-03-24 20:00:00 13.1 11 Este 31 Este 0 -- -- 70
2020-03-24 19:00:00 14.9 18 Este 36 Este 0 -- -- 62
2020-03-24 18:00:00 15.8 25 Este 49 Este 0 -- -- 60
2020-03-24 17:00:00 16 32 Este 52 Este 0 -- -- 61
2020-03-24 16:00:00 16.1 33 Este 50 Este 0 -- -- 59
2020-03-24 15:00:00 15.7 33 Este 53 Este 0 -- -- 66
2020-03-24 14:00:00 15.2 35 Este 57 Este 0 -- -- 64
2020-03-24 13:00:00 15 32 Este 55 Este 0 -- -- 61
2020-03-24 12:00:00 15.2 35 Este 60 Este 0 -- -- 64
2020-03-24 11:00:00 14 40 Este 55 Este 0 -- -- 69
2020-03-24 10:00:00 12.9 36 Este 60 Este 0 -- -- 71
2020-03-24 09:00:00 11.5 31 Nordeste 41 Nordeste 0 -- -- 80
2020-03-24 08:00:00 10.1 22 Nordeste 40 Este 0 -- -- 83
2020-03-24 07:00:00 9.3 21 Nordeste 35 Este 0 -- -- 88
2020-03-24 06:00:00 10.4 24 Este 48 Este 0 -- -- 83
2020-03-24 05:00:00 10.7 30 Este 41 Nordeste 0 -- -- 83
2020-03-24 04:00:00 10.2 25 Este 32 Este 0 -- -- 86
2020-03-24 03:00:00 9.6 22 Este 33 Este 0 -- -- 90
2020-03-24 02:00:00 9.3 24 Este 35 Este 0 -- -- 88
2020-03-24 01:00:00 9.5 19 Este 37 Este 0 -- -- 83
2020-03-24 00:00:00 9.1 21 Este 32 Este 0 -- -- 85
2020-03-23 23:00:00 9.8 20 Este 28 Nordeste 0 -- -- 81
2020-03-23 22:00:00 8.9 14 Nordeste 19 Nordeste 0 -- -- 92
2020-03-23 21:00:00 9.6 14 Nordeste 20 Nordeste 0 -- -- 90
2020-03-23 20:00:00 10.5 16 Norte 21 Norte 0 -- -- 85
2020-03-23 19:00:00 13.3 11 Norte 24 Nordeste 0 -- -- 74
2020-03-23 18:00:00 13.6 15 Nordeste 32 Nordeste 0 -- -- 71
2020-03-23 17:00:00 14.1 24 Este 43 Este 0 -- -- 70
2020-03-23 16:00:00 15.4 21 Este 37 Nordeste 0 -- -- 58
2020-03-23 15:00:00 14.7 19 Nordeste 39 Nordeste 0 -- -- 67
2020-03-23 14:00:00 14.6 26 Este 37 Este 0 -- -- 67
2020-03-23 13:00:00 15 21 Este 39 Este 0 -- -- 68
2020-03-23 12:00:00 14 27 Este 40 Nordeste 0 -- -- 75
2020-03-23 11:00:00 12.9 22 Este 32 Este 0 -- -- 79
2020-03-23 10:00:00 11.8 19 Este 33 Este 0 -- -- 83
2020-03-23 09:00:00 10 14 Nordeste 25 Nordeste 0 -- -- 94
2020-03-23 08:00:00 8.8 14 Nordeste 27 Este 0 -- -- 96
2020-03-23 07:00:00 8.5 19 Este 30 Este 0 -- -- 98
2020-03-23 06:00:00 7.7 13 Nordeste 20 Nordeste 0 -- -- 98
2020-03-23 05:00:00 7.7 13 Nordeste 19 Este 0 -- -- 97
2020-03-23 04:00:00 7.9 14 Nordeste 21 Este 0 -- -- 97
2020-03-23 03:00:00 8.3 15 Nordeste 19 Nordeste 0 -- -- 97
2020-03-23 02:00:00 8.2 13 Nordeste 15 Nordeste 0 -- -- 96
2020-03-23 01:00:00 9 6 Nordeste 8 Este 0 -- -- 91
2020-03-23 00:00:00 10.4 3 Este 5 Este 0 -- -- 84
2020-03-22 23:00:00 10.6 4 Sudeste 11 Sudeste 0 -- -- 85
2020-03-22 22:00:00 10.5 5 Sudeste 10 Norte 0 -- -- 83
2020-03-22 21:00:00 10.4 12 Norte 22 Nordeste 0.2 -- -- 88
2020-03-22 20:00:00 13.4 3 Noroeste 12 Norte 0 -- -- 61
2020-03-22 19:00:00 14.1 8 Norte 10 Noroeste 0 -- -- 63
2020-03-22 18:00:00 14.9 9 Norte 16 Oeste 0 -- -- 59
2020-03-22 17:00:00 15 7 Norte 17 Norte 0 -- -- 58
2020-03-22 16:00:00 14.6 11 Norte 21 Norte 0 -- -- 60
2020-03-22 15:00:00 14.5 12 Norte 19 Nordeste 0 -- -- 67
2020-03-22 14:00:00 14.3 11 Nordeste 21 Este 0 -- -- 70
2020-03-22 13:00:00 13.3 14 Nordeste 23 Este 0 -- -- 72
2020-03-22 12:00:00 12.8 14 Este 26 Nordeste 0 -- -- 78
2020-03-22 11:00:00 10.8 16 Este 24 Este 0 -- -- 87
2020-03-22 10:00:00 9 8 Nordeste 16 Nordeste 0.2 -- -- 94
2020-03-22 09:00:00 7.7 6 Nordeste 10 Nordeste 0 -- -- 100
2020-03-22 08:00:00 5.9 7 Nordeste 11 Este 0 -- -- 100
2020-03-22 07:00:00 5.9 9 Este 18 Este 0 -- -- 99
2020-03-22 06:00:00 6 14 Este 20 Este 0 -- -- 100
2020-03-22 05:00:00 6.1 13 Nordeste 17 Nordeste 0 -- -- 99
2020-03-22 04:00:00 6.4 13 Nordeste 20 Nordeste 0 -- -- 99
2020-03-22 03:00:00 6.8 10 Norte 12 Nordeste 0 -- -- 99
2020-03-22 02:00:00 7.5 10 Nordeste 17 Este 0 -- -- 99
2020-03-22 01:00:00 7.7 12 Nordeste 18 Nordeste 0 -- -- 99
2020-03-22 00:00:00 7.9 11 Nordeste 15 Nordeste 0 -- -- 98
2020-03-21 23:00:00 8 10 Este 17 Nordeste 0 -- -- 98
2020-03-21 22:00:00 7.7 8 Nordeste 12 Este 0.2 -- -- 98
2020-03-21 21:00:00 7.8 3 Noroeste 13 Sudeste 4.6 -- -- 96
2020-03-21 20:00:00 8.2 3 Sudoeste 14 Sudoeste 3.4 -- -- 94
2020-03-21 19:00:00 8.1 11 Oeste 24 Oeste 4 -- -- 93
2020-03-21 18:00:00 10.3 13 Nordeste 28 Este 0 -- -- 85
2020-03-21 17:00:00 11.5 19 Nordeste 30 Nordeste 0 -- -- 80
2020-03-21 16:00:00 11.3 17 Nordeste 31 Este 0 -- -- 82
2020-03-21 15:00:00 12.9 10 Este 21 Sudeste 0 -- -- 75
2020-03-21 14:00:00 10.9 13 Sudeste 28 Sur 0.4 -- -- 86
2020-03-21 13:00:00 11.8 10 Sudeste 18 Sudeste 0 -- -- 73
2020-03-21 12:00:00 10 7 Este 17 Sur 0.2 -- -- 92
2020-03-21 11:00:00 9 6 Sudeste 12 Sudeste 0 -- -- 94
2020-03-21 10:00:00 8.1 2 Este 4 Este 0 -- -- 99
2020-03-21 09:00:00 7.6 3 Sur 9 Noroeste 0.6 -- -- 99
2020-03-21 08:00:00 7.4 9 Oeste 20 Oeste 6.4 -- -- 98
2020-03-21 07:00:00 7.8 10 Sur 24 Sudeste 0 -- -- 96
2020-03-21 06:00:00 8.5 12 Sudeste 20 Este 0.4 -- -- 99
2020-03-21 05:00:00 8.6 9 Sudeste 16 Este 2.2 -- -- 100
2020-03-21 04:00:00 8.4 10 Este 13 Este 3.2 -- -- 100
2020-03-21 03:00:00 8.4 9 Este 13 Este 4.2 -- -- 99
2020-03-21 02:00:00 8.8 3 Sudoeste 12 Noroeste 4.6 -- -- 99
2020-03-21 01:00:00 9 10 Oeste 18 Oeste 6.4 -- -- 99
2020-03-21 00:00:00 9.2 15 Oeste 19 Oeste 3.6 -- -- 99
2020-03-20 23:00:00 9.3 11 Noroeste 25 Noroeste 6.2 -- -- 98
2020-03-20 22:00:00 10.4 6 Oeste 9 Sudoeste 1.8 -- -- 99
2020-03-20 21:00:00 10.4 5 Nordeste 8 Este 0 -- -- 99
2020-03-20 20:00:00 10.6 7 Este 8 Este 0.6 -- -- 99
2020-03-20 19:00:00 11 4 Sudeste 17 Sudeste 6 -- -- 99
2020-03-20 18:00:00 11.5 5 Sudeste 10 Este 3.2 -- -- 99
2020-03-20 17:00:00 11.3 8 Sudeste 17 Sudeste 1.6 -- -- 99
2020-03-20 16:00:00 11.5 10 Sudeste 21 Sudeste 2.2 -- -- 98
2020-03-20 15:00:00 11.7 10 Sur 20 Este 2 -- -- 99
2020-03-20 14:00:00 10.7 12 Este 22 Este 1.2 -- -- 100
2020-03-20 13:00:00 10.3 16 Este 29 Este 2.4 -- -- 100
2020-03-20 12:00:00 9.6 18 Este 30 Este 9.8 -- -- 100
2020-03-20 11:00:00 9.6 14 Nordeste 24 Nordeste 11.2 -- -- 99
2020-03-20 10:00:00 9.9 12 Nordeste 20 Nordeste 3.2 -- -- 98
2020-03-20 09:00:00 9.9 13 Este 17 Este 3.8 -- -- 96
2020-03-20 08:00:00 10.1 8 Este 22 Este 5.8 -- -- 92
2020-03-20 07:00:00 10.4 11 Este 34 Este 0 -- -- 89
2020-03-20 06:00:00 10.4 23 Este 36 Este 0.4 -- -- 90
2020-03-20 05:00:00 10.5 23 Este 33 Este 2.2 -- -- 89
2020-03-20 04:00:00 11.6 18 Este 31 Este 0 -- -- 78
2020-03-20 03:00:00 11.4 15 Este 26 Este 0 -- -- 77
2020-03-20 02:00:00 12.3 14 Este 25 Este 0 -- -- 73
2020-03-20 01:00:00 12.4 16 Este 29 Este 0 -- -- 72
2020-03-20 00:00:00 12.5 19 Este 27 Este 0 -- -- 71
2020-03-19 23:00:00 12.4 16 Este 25 Este 0 -- -- 72
2020-03-19 22:00:00 12.5 15 Este 25 Este 0 -- -- 72
2020-03-19 21:00:00 12.8 19 Este 27 Este 0 -- -- 71
2020-03-19 20:00:00 13.1 15 Este 23 Este 0 -- -- 71
2020-03-19 19:00:00 14.1 16 Este 24 Nordeste 0 -- -- 68
2020-03-19 18:00:00 15.1 20 Este 30 Este 0 -- -- 66
2020-03-19 17:00:00 15.9 22 Este 36 Este 0 -- -- 61
2020-03-19 16:00:00 17.8 24 Este 37 Este 0 -- -- 53
2020-03-19 15:00:00 16.5 23 Este 42 Este 0 -- -- 54
2020-03-19 14:00:00 16.1 21 Este 39 Este 0 -- -- 58
2020-03-19 13:00:00 14.6 21 Nordeste 33 Nordeste 0 -- -- 65
2020-03-19 12:00:00 16.2 19 Este 30 Nordeste 0 -- -- 59
2020-03-19 11:00:00 14.8 15 Este 24 Este 0 -- -- 61
2020-03-19 10:00:00 12.9 16 Este 24 Este 0 -- -- 64
2020-03-19 09:00:00 10.3 18 Este 32 Este 0 -- -- 72
2020-03-19 08:00:00 9.1 19 Este 32 Este 0 -- -- 76
2020-03-19 07:00:00 9.3 20 Este 27 Este 0 -- -- 74
2020-03-19 06:00:00 9.9 18 Nordeste 24 Nordeste 0 -- -- 74
2020-03-19 05:00:00 10 13 Este 20 Este 0 -- -- 74
2020-03-19 04:00:00 11.3 6 Sudeste 18 Este 0 -- -- 67
2020-03-19 03:00:00 12.5 9 Este 33 Este 0 -- -- 63
2020-03-19 02:00:00 13.6 16 Este 26 Este 0 -- -- 60
2020-03-19 01:00:00 13.6 18 Este 33 Este 0 -- -- 66
2020-03-19 00:00:00 14 19 Este 33 Este 0 -- -- 67
2020-03-18 23:00:00 14.4 25 Este 37 Este 0 -- -- 63
2020-03-18 22:00:00 14.2 19 Este 36 Este 0 -- -- 65
2020-03-18 21:00:00 14 22 Este 32 Este 0 -- -- 69
2020-03-18 20:00:00 13.9 19 Este 30 Nordeste 0 -- -- 69
2020-03-18 19:00:00 14.9 25 Este 33 Nordeste 0 -- -- 65
2020-03-18 18:00:00 15.1 20 Este 32 Nordeste 0 -- -- 65
2020-03-18 17:00:00 16.3 23 Este 42 Este 0 -- -- 63
2020-03-18 16:00:00 16.8 26 Este 37 Nordeste 0 -- -- 62
2020-03-18 15:00:00 18.7 27 Este 36 Este 0 -- -- 55
2020-03-18 14:00:00 18.3 22 Este 37 Este 0 -- -- 57
2020-03-18 13:00:00 17.2 19 Este 34 Este 0 -- -- 60
2020-03-18 12:00:00 16.1 25 Este 44 Este 0 -- -- 64
2020-03-18 11:00:00 14.6 30 Este 48 Este 0 -- -- 68
2020-03-18 10:00:00 13.3 29 Este 46 Este 0 -- -- 69
2020-03-18 09:00:00 11.9 26 Este 41 Este 0 -- -- 71
2020-03-18 08:00:00 11.3 27 Este 59 Este 0 -- -- 73
2020-03-18 07:00:00 11.8 32 Este 60 Este 0 -- -- 72
2020-03-18 06:00:00 11.5 29 Este 43 Este 0 -- -- 74
2020-03-18 05:00:00 12 25 Este 39 Este 0 -- -- 78
2020-03-18 04:00:00 12.6 27 Este 47 Nordeste 0 -- -- 80
2020-03-18 03:00:00 13 32 Este 52 Este 0 -- -- 77
2020-03-18 02:00:00 13 33 Este 47 Este 0 -- -- 78
2020-03-18 01:00:00 12.7 27 Este 49 Este 0 -- -- 79
2020-03-18 00:00:00 12.8 31 Este 45 Este 0 -- -- 79
2020-03-17 23:00:00 11.2 18 Nordeste 24 Nordeste 0 -- -- 78
2020-03-17 22:00:00 10.8 16 Nordeste 22 Nordeste 0 -- -- 77
2020-03-17 21:00:00 11.1 17 Nordeste 19 Nordeste 0 -- -- 72
2020-03-17 20:00:00 11.9 10 Nordeste 16 Este 0 -- -- 66
2020-03-17 19:00:00 13.9 13 Este 32 Nordeste 0 -- -- 60
2020-03-17 18:00:00 15 21 Este 32 Nordeste 0 -- -- 56
2020-03-17 17:00:00 15 19 Nordeste 34 Este 0 -- -- 55
2020-03-17 16:00:00 16 18 Este 38 Este 0 -- -- 53
2020-03-17 15:00:00 15.5 23 Este 37 Este 0 -- -- 55
2020-03-17 14:00:00 14.6 19 Este 45 Este 0 -- -- 51
2020-03-17 13:00:00 14.4 22 Este 42 Este 0 -- -- 60
2020-03-17 12:00:00 12.2 29 Nordeste 40 Nordeste 0 -- -- 71
2020-03-17 11:00:00 10 28 Nordeste 40 Nordeste 0 -- -- 79
2020-03-17 10:00:00 7.6 26 Nordeste 37 Nordeste 0 -- -- 85
2020-03-17 09:00:00 5.5 20 Nordeste 35 Nordeste 0 -- -- 90
2020-03-17 08:00:00 4 24 Nordeste 34 Nordeste 0 -- -- 94
2020-03-17 07:00:00 3.4 19 Nordeste 27 Nordeste 0 -- -- 94
2020-03-17 06:00:00 3.5 15 Nordeste 27 Nordeste 0 -- -- 92
2020-03-17 05:00:00 3 17 Nordeste 23 Nordeste 0 -- -- 96
2020-03-17 04:00:00 3 14 Nordeste 23 Nordeste 0 -- -- 95
2020-03-17 03:00:00 3.7 18 Nordeste 28 Nordeste 0.2 -- -- 94
2020-03-17 02:00:00 3.8 14 Nordeste 22 Nordeste 0 -- -- 96
2020-03-17 01:00:00 4.3 15 Nordeste 21 Nordeste 0 -- -- 97
2020-03-17 00:00:00 5.3 14 Nordeste 25 Nordeste 0 -- -- 95
2020-03-16 23:00:00 5.8 12 Nordeste 28 Norte 0 -- -- 95
2020-03-16 22:00:00 6 22 Norte 40 Norte 0 -- -- 92
2020-03-16 21:00:00 6.2 24 Norte 41 Norte 0.4 -- -- 92
2020-03-16 20:00:00 6.5 32 Norte 55 Norte 1 -- -- 91
2020-03-16 19:00:00 7.7 21 Norte 35 Norte 0 -- -- 81
2020-03-16 18:00:00 8.3 23 Norte 43 Norte 0 -- -- 76
2020-03-16 17:00:00 8.2 23 Norte 33 Norte 0 -- -- 76
2020-03-16 16:00:00 8.2 24 Norte 34 Norte 0 -- -- 76
2020-03-16 15:00:00 8.7 24 Norte 61 Norte 0.2 -- -- 71
2020-03-16 14:00:00 7.4 31 Norte 60 Norte 0.2 -- -- 73
2020-03-16 13:00:00 9.3 34 Norte -- -- -- -- -- 60
2020-03-16 12:00:00 8.3 35 Norte 46 Norte -- -- -- 63
2020-03-16 11:00:00 8.6 38 Norte 55 Norte 0 -- -- 62
2020-03-16 10:00:00 7 33 Noroeste 45 Noroeste 0 -- -- 67
2020-03-16 09:00:00 4.9 23 Noroeste 31 Noroeste 0 -- -- 76
2020-03-16 08:00:00 3 18 Noroeste 32 Noroeste 0 -- -- 82
2020-03-16 07:00:00 2.3 15 Noroeste 30 Noroeste 0 -- -- 86
2020-03-16 06:00:00 2.2 17 Noroeste 22 Noroeste 0 -- -- 88
2020-03-16 05:00:00 2.2 18 Noroeste 22 Noroeste 0 -- -- 88
2020-03-16 04:00:00 1.6 12 Noroeste 21 Noroeste 0 -- -- 87
2020-03-16 03:00:00 3.2 20 Noroeste 26 Noroeste 0 -- -- 80
2020-03-16 02:00:00 4 19 Noroeste 30 Noroeste 0 -- -- 76
2020-03-16 01:00:00 5.2 24 Noroeste 38 Noroeste 0 -- -- 72
2020-03-16 00:00:00 5.6 24 Noroeste 33 Noroeste 0 -- -- 72
2020-03-15 23:00:00 6.5 27 Noroeste 37 Noroeste 0 -- -- 78
2020-03-15 22:00:00 7.8 24 Noroeste 39 Noroeste 0 -- -- 76
2020-03-15 21:00:00 8.3 31 Noroeste 50 Oeste 0 -- -- 76
2020-03-15 20:00:00 11.7 33 Oeste 47 Oeste 0 -- -- 71
2020-03-15 19:00:00 14.1 25 Noroeste 40 Oeste 0 -- -- 58
2020-03-15 18:00:00 15.5 33 Oeste 46 Oeste 0 -- -- 55
2020-03-15 17:00:00 16.3 33 Oeste 48 Oeste 0 -- -- 64
2020-03-15 16:00:00 16.1 36 Oeste 51 Oeste 0 -- -- 69
2020-03-15 15:00:00 17.8 40 Oeste 50 Oeste 0 -- -- 66
2020-03-15 14:00:00 20.1 19 Oeste 29 Oeste 0 -- -- 58
2020-03-15 13:00:00 19.6 13 Oeste 28 Oeste 0 -- -- 62
2020-03-15 12:00:00 18.1 13 Sudoeste 19 Sudoeste 0 -- -- 67
2020-03-15 11:00:00 16.6 6 Sudoeste 10 Sudoeste 0 -- -- 78
2020-03-15 10:00:00 14.5 5 Sur 11 Sudoeste 0 -- -- 83
2020-03-15 09:00:00 12.6 8 Sudoeste 10 Sudoeste 0 -- -- 86
2020-03-15 08:00:00 12.1 5 Sur 6 Sur 0 -- -- 85
2020-03-15 07:00:00 11.9 4 Sudoeste 6 Sudeste 0 -- -- 82
2020-03-15 06:00:00 13.3 3 Noroeste 6 Noroeste 0 -- -- 65
2020-03-15 05:00:00 13.7 7 Oeste 11 Sudoeste 0 -- -- 71
2020-03-15 04:00:00 13.1 8 Sudoeste 9 Sur 0 -- -- 63
2020-03-15 03:00:00 12.9 6 Sur 8 Sur 0 -- -- 61
2020-03-15 02:00:00 13.5 5 Sudeste 14 Nordeste 0 -- -- 64
2020-03-15 01:00:00 13.9 13 Nordeste 15 Nordeste 0 -- -- 57
2020-03-15 00:00:00 16.8 7 Norte 8 Norte 0 -- -- 61
2020-03-14 23:00:00 17.5 4 Noroeste 5 Noroeste 0 -- -- 59
2020-03-14 22:00:00 17.5 4 Oeste 5 Oeste 0 -- -- 57
2020-03-14 21:00:00 17.9 4 Sudeste 5 Sur 0 -- -- 60
2020-03-14 20:00:00 19.3 3 Oeste 6 Noroeste 0 -- -- 54
2020-03-14 19:00:00 21.6 3 Noroeste 5 Nordeste 0 -- -- 55
2020-03-14 18:00:00 21.9 3 Nordeste 12 Norte 0 -- -- 51
2020-03-14 17:00:00 22.3 3 Norte 14 Nordeste 0 -- -- 53
2020-03-14 16:00:00 22.2 4 Este 15 Este 0 -- -- 59
2020-03-14 15:00:00 21.1 5 Este 15 Nordeste 0 -- -- 61
2020-03-14 14:00:00 20.1 7 Este 16 Este 0 -- -- 64
2020-03-14 13:00:00 19.2 9 Este 22 Nordeste 0 -- -- 67
2020-03-14 12:00:00 18.4 9 Este 19 Este 0 -- -- 70
2020-03-14 11:00:00 17.3 5 Este 12 Este 0 -- -- 71
2020-03-14 10:00:00 14.4 3 Este 13 Este 0 -- -- 77
2020-03-14 09:00:00 10.8 6 Nordeste 14 Norte 0 -- -- 87
2020-03-14 08:00:00 7.5 12 Norte 14 Norte 0 -- -- 95
2020-03-14 07:00:00 8.4 11 Norte 15 Norte 0 -- -- 94
2020-03-14 06:00:00 9.2 10 Norte 15 Noroeste 0 -- -- 90
2020-03-14 05:00:00 9.9 14 Noroeste 15 Noroeste 0 -- -- 91
2020-03-14 04:00:00 9.9 11 Norte 15 Norte 0 -- -- 85
2020-03-14 03:00:00 10.4 10 Norte 13 Norte 0 -- -- 83
2020-03-14 02:00:00 10.9 10 Norte 16 Norte 0 -- -- 86
2020-03-14 01:00:00 11.9 10 Noroeste 19 Norte 0 -- -- 86
2020-03-14 00:00:00 12.3 14 Norte 16 Norte 0 -- -- 84
2020-03-13 23:00:00 12.7 12 Noroeste 14 Noroeste 0 -- -- 85
2020-03-13 22:00:00 13.9 9 Norte 12 Norte 0 -- -- 85
2020-03-13 21:00:00 14.8 8 Noroeste 20 Norte 0 -- -- 84
2020-03-13 20:00:00 16.6 12 Oeste 14 Oeste 0 -- -- 75
2020-03-13 19:00:00 18.3 10 Noroeste 18 Noroeste 0 -- -- 71
2020-03-13 18:00:00 19.7 8 Noroeste 18 Noroeste 0 -- -- 66
2020-03-13 17:00:00 19.8 11 Noroeste 18 Noroeste 0 -- -- 64
2020-03-13 16:00:00 19.8 9 Noroeste 18 Oeste 0 -- -- 67
2020-03-13 15:00:00 19.6 6 Oeste 14 Oeste 0 -- -- 67
2020-03-13 14:00:00 19.1 8 Oeste 14 Oeste 0 -- -- 70
2020-03-13 13:00:00 18.5 3 Sur 12 Sudoeste 0 -- -- 72
2020-03-13 12:00:00 16.4 4 Norte 10 Norte 0 -- -- 78
2020-03-13 11:00:00 14.5 7 Norte 15 Nordeste 0 -- -- 84
2020-03-13 10:00:00 11.5 6 Noroeste 9 Noroeste 0 -- -- 95
2020-03-13 09:00:00 10.2 7 Noroeste 10 Oeste 0 -- -- 96
2020-03-13 08:00:00 9.4 8 Oeste 12 Oeste 0 -- -- 94
2020-03-13 07:00:00 9.9 10 Oeste 14 Oeste 0 -- -- 93
2020-03-13 06:00:00 10.1 9 Noroeste 16 Noroeste 0 -- -- 94
2020-03-13 05:00:00 10.4 12 Noroeste 17 Noroeste 0 -- -- 93
2020-03-13 04:00:00 11 9 Noroeste 13 Noroeste 0 -- -- 93
2020-03-13 03:00:00 11.9 11 Noroeste 15 Noroeste 0 -- -- 90
2020-03-13 02:00:00 13.4 9 Oeste 12 Oeste 0 -- -- 85
2020-03-13 01:00:00 14.1 9 Oeste 12 Sudoeste 0 -- -- 81
2020-03-13 00:00:00 15.2 7 Sudoeste 10 Oeste 0 -- -- 75
2020-03-12 23:00:00 15.7 9 Oeste 12 Oeste 0 -- -- 73
2020-03-12 22:00:00 16.5 9 Oeste 10 Oeste 0 -- -- 71
2020-03-12 21:00:00 16.9 9 Oeste 12 Sudoeste 0 -- -- 70
2020-03-12 20:00:00 18.2 6 Sudoeste 11 Sur 0 -- -- 70
2020-03-12 19:00:00 20.9 4 Norte 7 Noroeste 0 -- -- 59
2020-03-12 18:00:00 22.3 6 Noroeste 10 Noroeste 0 -- -- 58
2020-03-12 17:00:00 22.7 10 Noroeste 15 Norte 0 -- -- 55
2020-03-12 16:00:00 23.8 4 Noroeste 13 Nordeste 0 -- -- 50
2020-03-12 15:00:00 24.1 4 Sudeste 11 Este 0 -- -- 49
2020-03-12 14:00:00 22.6 7 Noroeste -- -- -- -- -- 55
2020-03-12 13:00:00 22 3 Noroeste 10 Oeste 0 -- -- 53
2020-03-12 12:00:00 21 4 Norte 11 Nordeste 0 -- -- 60
2020-03-12 11:00:00 20.5 5 Norte 9 Noroeste 0 -- -- 57
2020-03-12 10:00:00 18.6 5 Sudeste 10 Este 0 -- -- 65
2020-03-12 09:00:00 15.7 6 Sudeste 11 Sur 0 -- -- 65
2020-03-12 08:00:00 15.5 4 Sudeste 13 Sudeste 0 -- -- 65
2020-03-12 07:00:00 13.5 10 Sudeste 14 Sudeste 0 -- -- 76
2020-03-12 06:00:00 14.8 11 Sudeste 15 Este 0 -- -- 71
2020-03-12 05:00:00 14.3 10 Este 13 Este 0 -- -- 77
2020-03-12 04:00:00 14.4 11 Este 17 Este 0 -- -- 77
2020-03-12 03:00:00 14.8 12 Este 13 Este 0 -- -- 76
2020-03-12 02:00:00 14.5 10 Este 14 Nordeste 0 -- -- 78
2020-03-12 01:00:00 15.2 13 Nordeste 17 Nordeste 0 -- -- 79
2020-03-12 00:00:00 16 15 Nordeste 17 Nordeste 0 -- -- 76
2020-03-11 23:00:00 16.7 14 Nordeste 16 Nordeste 0 -- -- 74
2020-03-11 22:00:00 17.1 14 Nordeste 19 Nordeste 0 -- -- 73
2020-03-11 21:00:00 17.4 17 Nordeste 19 Nordeste 0 -- -- 74
2020-03-11 20:00:00 17.5 13 Nordeste 15 Nordeste 0 -- -- 73
2020-03-11 19:00:00 18.4 11 Nordeste 14 Nordeste 0 -- -- 72
2020-03-11 18:00:00 19.6 12 Nordeste 13 Nordeste 0 -- -- 69
2020-03-11 17:00:00 20.9 8 Nordeste 12 Nordeste 0 -- -- 66
2020-03-11 16:00:00 22.4 6 Nordeste 10 Nordeste 0 -- -- 61
2020-03-11 15:00:00 23.4 5 Nordeste 9 Nordeste 0 -- -- 55
2020-03-11 14:00:00 23.8 4 Nordeste 12 Este 0 -- -- 50
2020-03-11 13:00:00 23.3 5 Este 13 Este 0 -- -- 53
2020-03-11 12:00:00 21.9 4 Este 10 Sur 0 -- -- 57
2020-03-11 11:00:00 20.7 3 Sudeste 9 Sudeste 0 -- -- 60
2020-03-11 10:00:00 18.4 5 Este 11 Sudeste 0 -- -- 65
2020-03-11 09:00:00 15.5 7 Sudeste 10 Este 0 -- -- 64
2020-03-11 08:00:00 14 8 Sudeste 9 Sudeste 0 -- -- 68
2020-03-11 07:00:00 13.6 8 Sudeste 9 Sudeste 0 -- -- 70
2020-03-11 06:00:00 13.9 6 Sudeste 9 Sudeste 0 -- -- 71
2020-03-11 05:00:00 13.8 6 Sudeste 12 Este 0 -- -- 70
2020-03-11 04:00:00 14.3 9 Este 13 Nordeste 0 -- -- 70
2020-03-11 03:00:00 15.3 9 Nordeste 10 Nordeste 0 -- -- 67
2020-03-11 02:00:00 17.3 8 Norte 12 Noroeste 0 -- -- 61
2020-03-11 01:00:00 17 11 Noroeste 12 Noroeste 0 -- -- 60
2020-03-11 00:00:00 18.4 5 Noroeste 6 Noroeste 0 -- -- 54
2020-03-10 23:00:00 18.2 6 Oeste 10 Sudoeste 0 -- -- 56
2020-03-10 22:00:00 18.6 8 Sudoeste 9 Sudoeste 0 -- -- 56
2020-03-10 21:00:00 19.3 3 Noroeste 4 Noroeste 0 -- -- 53
2020-03-10 20:00:00 20.2 2 Oeste 3 Oeste 0 -- -- 52
2020-03-10 19:00:00 22.1 0 Calma 7 Oeste 0 -- -- 49
2020-03-10 18:00:00 22.6 5 Oeste 12 Oeste 0 -- -- 49
2020-03-10 17:00:00 22.7 3 Noroeste 11 Oeste 0 -- -- 45
2020-03-10 16:00:00 22.4 4 Oeste 9 Sudoeste 0 -- -- 39
2020-03-10 15:00:00 21.4 5 Sur 12 Sur 0 -- -- 44
2020-03-10 14:00:00 20.6 5 Sur 10 Sudoeste 0 -- -- 50
2020-03-10 13:00:00 18.7 3 Noroeste 9 Oeste 0 -- -- 55
2020-03-10 12:00:00 17.7 5 Sudoeste 10 Sur 0 -- -- 54
2020-03-10 11:00:00 15.9 4 Sudeste 8 Este 0 -- -- 60
2020-03-10 10:00:00 12.5 3 Norte 8 Norte 0 -- -- 70
2020-03-10 09:00:00 9.9 6 Norte 7 Norte 0 -- -- 77
2020-03-10 08:00:00 9.4 3 Noroeste 6 Noroeste 0 -- -- 68
2020-03-10 07:00:00 8.9 4 Noroeste 9 Sudoeste 0 -- -- 71
2020-03-10 06:00:00 9.7 5 Sur 22 Nordeste 0 -- -- 68
2020-03-10 05:00:00 9.4 16 Nordeste 21 Nordeste 0 -- -- 71
2020-03-10 04:00:00 9.7 19 Nordeste 22 Norte 0 -- -- 71
2020-03-10 03:00:00 8.9 13 Norte 18 Norte 0 -- -- 70
2020-03-10 02:00:00 9.6 13 Norte 17 Norte 0 -- -- 68
2020-03-10 01:00:00 9.9 5 Nordeste 22 Norte 0 -- -- 63
2020-03-10 00:00:00 10.5 12 Norte 24 Norte 0 -- -- 57
2020-03-09 23:00:00 11.4 18 Norte 23 Norte 0 -- -- 53
2020-03-09 22:00:00 11.9 14 Noroeste 23 Norte 0 -- -- 51
2020-03-09 21:00:00 13.1 19 Norte 25 Norte 0 -- -- 46
2020-03-09 20:00:00 14.2 14 Norte 20 Norte 0 -- -- 44
2020-03-09 19:00:00 16.3 14 Norte 17 Noroeste 0 -- -- 48
2020-03-09 18:00:00 18 8 Norte 14 Noroeste 0 -- -- 45
2020-03-09 17:00:00 19.4 8 Norte 21 Norte 0 -- -- 39
2020-03-09 16:00:00 18.5 15 Norte 23 Norte 0 -- -- 40
2020-03-09 15:00:00 17.4 18 Noroeste 28 Norte 0 -- -- 44
2020-03-09 14:00:00 15.6 12 Noroeste 22 Noroeste 0 -- -- 56
2020-03-09 13:00:00 14.1 13 Noroeste 22 Noroeste 0 -- -- 65
2020-03-09 12:00:00 12.4 14 Noroeste 18 Noroeste 0 -- -- 70
2020-03-09 11:00:00 10.7 11 Noroeste 17 Noroeste 0 -- -- 80
2020-03-09 10:00:00 8.5 9 Noroeste 13 Noroeste 0 -- -- 92
2020-03-09 09:00:00 6.2 7 Noroeste 9 Noroeste 0 -- -- 94
2020-03-09 08:00:00 5.4 6 Noroeste 11 Noroeste 0 -- -- 97
2020-03-09 07:00:00 6.1 7 Noroeste 15 Noroeste 0 -- -- 94
2020-03-09 06:00:00 6 13 Noroeste 16 Norte 0 -- -- 97
2020-03-09 05:00:00 6.3 13 Norte 17 Norte 0 -- -- 97
2020-03-09 04:00:00 6.5 15 Noroeste 18 Noroeste 0 -- -- 99
2020-03-09 03:00:00 7 17 Noroeste 19 Noroeste 0 -- -- 98
2020-03-09 02:00:00 7.7 17 Noroeste 18 Noroeste 0 -- -- 98
2020-03-09 01:00:00 8.3 13 Noroeste 15 Noroeste 0 -- -- 97
2020-03-09 00:00:00 8.7 14 Noroeste 17 Noroeste 0 -- -- 94
2020-03-08 23:00:00 9.2 14 Noroeste 20 Noroeste 0 -- -- 93
2020-03-08 22:00:00 10.5 13 Noroeste 18 Noroeste 0 -- -- 87
2020-03-08 21:00:00 10.4 13 Noroeste 17 Noroeste 0 -- -- 83
2020-03-08 20:00:00 11.8 10 Noroeste 17 Oeste 0 -- -- 76
2020-03-08 19:00:00 13.9 15 Oeste 19 Oeste 0 -- -- 70
2020-03-08 18:00:00 14.6 19 Noroeste 25 Noroeste 0 -- -- 64
2020-03-08 17:00:00 13.8 9 Norte 24 Noroeste 0 -- -- 70
2020-03-08 16:00:00 13.9 16 Noroeste 21 Noroeste 0 -- -- 67
2020-03-08 15:00:00 13.3 12 Noroeste 17 Oeste 0 -- -- 64
2020-03-08 14:00:00 13.6 12 Noroeste 18 Oeste 0 -- -- 64
2020-03-08 13:00:00 14.4 6 Sudoeste 15 Sudoeste 0 -- -- 62
2020-03-08 12:00:00 12.8 6 Oeste 13 Sudoeste 0 -- -- 73
2020-03-08 11:00:00 11.8 4 Oeste 9 Sur 0 -- -- 71
2020-03-08 10:00:00 10.2 4 Sur 6 Sur 0 -- -- 79
2020-03-08 09:00:00 7.5 4 Sudeste 9 Sur 0 -- -- 85
2020-03-08 08:00:00 5.7 9 Sur 9 Sur 0 -- -- 90
2020-03-08 07:00:00 7 2 Sur 8 Noroeste 0 -- -- 86
2020-03-08 06:00:00 6.9 8 Noroeste 12 Noroeste 0 -- -- 86
2020-03-08 05:00:00 7.8 5 Oeste 8 Oeste 0 -- -- 84
2020-03-08 04:00:00 7.5 5 Oeste 14 Noroeste 0 -- -- 86
2020-03-08 03:00:00 7.1 12 Noroeste 18 Noroeste 0 -- -- 87
2020-03-08 02:00:00 8.5 13 Noroeste 15 Noroeste 0 -- -- 78
2020-03-08 01:00:00 9.8 8 Oeste 13 Oeste 0 -- -- 68
2020-03-08 00:00:00 10.4 9 Oeste 10 Oeste 0 -- -- 64
2020-03-07 23:00:00 11.2 9 Sudoeste 11 Sudoeste 0 -- -- 62
2020-03-07 22:00:00 12 9 Sudoeste 10 Sudoeste 0 -- -- 58
2020-03-07 21:00:00 12.1 8 Sudoeste 9 Sudoeste 0 -- -- 59
2020-03-07 20:00:00 12.2 8 Sudoeste 11 Sudoeste 0 -- -- 61
2020-03-07 19:00:00 14.4 9 Sudoeste 11 Sudoeste 0 -- -- 62
2020-03-07 18:00:00 16.2 5 Oeste 14 Oeste 0 -- -- 53
2020-03-07 17:00:00 16.3 8 Sudoeste 16 Oeste 0 -- -- 53
2020-03-07 16:00:00 16.1 5 Oeste 14 Oeste 0 -- -- 56
2020-03-07 15:00:00 15.6 6 Noroeste 13 Oeste 0 -- -- 53
2020-03-07 14:00:00 15.1 3 Sudoeste 14 Nordeste 0 -- -- 53
2020-03-07 13:00:00 13.7 7 Nordeste 22 Nordeste 0 -- -- 62
2020-03-07 12:00:00 11.9 7 Norte 17 Nordeste 0 -- -- 65
2020-03-07 11:00:00 9.4 8 Norte 18 Nordeste 0 -- -- 73
2020-03-07 10:00:00 7.7 21 Norte 27 Norte 0 -- -- 77
2020-03-07 09:00:00 6 8 Nordeste 26 Norte 0 -- -- 82
2020-03-07 08:00:00 4.7 21 Norte 25 Norte 0 -- -- 86
2020-03-07 07:00:00 4.3 16 Norte 21 Norte 0 -- -- 84
2020-03-07 06:00:00 5.1 13 Norte 18 Norte 0 -- -- 79
2020-03-07 05:00:00 5.9 17 Norte 27 Norte 0 -- -- 75
2020-03-07 04:00:00 6.5 22 Norte 32 Norte 0 -- -- 73
2020-03-07 03:00:00 5.5 22 Norte 36 Norte 0 -- -- 77
2020-03-07 02:00:00 6.8 27 Norte 36 Noroeste 0 -- -- 73
2020-03-07 01:00:00 6.1 30 Noroeste 35 Noroeste 0 -- -- 79
2020-03-07 00:00:00 6.2 19 Norte 24 Noroeste 0 -- -- 78
2020-03-06 23:00:00 7.5 22 Norte 28 Noroeste 0 -- -- 71
2020-03-06 22:00:00 8.1 20 Norte 28 Noroeste 0 -- -- 67
2020-03-06 21:00:00 8.3 11 Norte 27 Noroeste 0 -- -- 67
2020-03-06 20:00:00 10 16 Noroeste 26 Norte 0 -- -- 62
2020-03-06 19:00:00 12 12 Noroeste 40 Noroeste 0 -- -- 54
2020-03-06 18:00:00 13.3 31 Noroeste 42 Noroeste 0 -- -- 50
2020-03-06 17:00:00 13.9 36 Noroeste 46 Noroeste 0 -- -- 48
2020-03-06 16:00:00 14.2 30 Noroeste 43 Noroeste 0 -- -- 48
2020-03-06 15:00:00 14.1 31 Noroeste 45 Noroeste 0 -- -- 51
2020-03-06 14:00:00 13.5 28 Noroeste 40 Noroeste 0 -- -- 52
2020-03-06 13:00:00 12.9 21 Noroeste 32 Noroeste 0 -- -- 59
2020-03-06 12:00:00 11.6 17 Noroeste 27 Noroeste 0 -- -- 61
2020-03-06 11:00:00 10.6 18 Noroeste 27 Noroeste 0 -- -- 66
2020-03-06 10:00:00 9 13 Noroeste 23 Noroeste 0 -- -- 70
2020-03-06 09:00:00 6.8 17 Noroeste 28 Noroeste 0 -- -- 80
2020-03-06 08:00:00 7.1 21 Noroeste 34 Noroeste 0 -- -- 84
2020-03-06 07:00:00 7.3 21 Oeste 28 Oeste 0 -- -- 97
2020-03-06 06:00:00 7.5 17 Oeste 28 Sudoeste 0 -- -- 97
2020-03-06 05:00:00 7.9 24 Sudoeste 39 Oeste 0 -- -- 97
2020-03-06 04:00:00 7.3 25 Oeste 31 Oeste 0 -- -- 97
2020-03-06 03:00:00 7.3 14 Sudoeste 30 Oeste 0 -- -- 94
2020-03-06 02:00:00 7.4 23 Oeste 31 Oeste 0 -- -- 94
2020-03-06 01:00:00 6.3 15 Sudoeste 27 Oeste 0 -- -- 91
2020-03-06 00:00:00 7.3 20 Oeste 31 Oeste 0 -- -- 86
2020-03-05 23:00:00 8 24 Noroeste 36 Oeste 0 -- -- 85
2020-03-05 22:00:00 8 18 Oeste 37 Noroeste 0 -- -- 83
2020-03-05 21:00:00 8.9 31 Noroeste 39 Noroeste 0 -- -- 78
2020-03-05 20:00:00 9.7 34 Noroeste 44 Noroeste 0 -- -- 76
2020-03-05 19:00:00 11.5 33 Oeste 45 Noroeste 0 -- -- 71
2020-03-05 18:00:00 13.4 35 Noroeste 50 Oeste 0 -- -- 66
2020-03-05 17:00:00 14.4 41 Noroeste 55 Oeste 0 -- -- 67
2020-03-05 16:00:00 14.9 38 Noroeste 53 Oeste 0 -- -- 66
2020-03-05 15:00:00 14.6 31 Oeste 44 Oeste 0 -- -- 66
2020-03-05 14:00:00 13.8 30 Noroeste 48 Oeste 0 -- -- 64
2020-03-05 13:00:00 13.8 37 Oeste 49 Oeste 0 -- -- 67
2020-03-05 12:00:00 12.6 29 Oeste 43 Oeste 0 -- -- 80
2020-03-05 11:00:00 11.6 34 Oeste 48 Oeste 0 -- -- 85
2020-03-05 10:00:00 10.3 33 Noroeste 54 Oeste 0.6 -- -- 88
2020-03-05 09:00:00 11.3 31 Oeste 50 Oeste 0 -- -- 97
2020-03-05 08:00:00 11.1 18 Sudoeste 30 Sudoeste 0 -- -- 96
2020-03-05 07:00:00 11.1 14 Sudoeste 27 Sudoeste 0 -- -- 96
2020-03-05 06:00:00 11.8 18 Sudoeste 33 Oeste 0 -- -- 94
2020-03-05 05:00:00 12 26 Oeste 39 Oeste 0 -- -- 95
2020-03-05 04:00:00 12.3 23 Sudoeste 35 Oeste 0 -- -- 94
2020-03-05 03:00:00 12.4 23 Oeste 31 Oeste 0 -- -- 96
2020-03-05 02:00:00 12.3 18 Oeste 26 Oeste 0 -- -- 97
2020-03-05 01:00:00 12.6 15 Oeste 25 Oeste 0 -- -- 96
2020-03-05 00:00:00 12.8 12 Oeste 23 Oeste 0 -- -- 95
2020-03-04 23:00:00 13 14 Oeste 20 Oeste 0 -- -- 93
2020-03-04 22:00:00 13 12 Sudoeste 21 Oeste 0 -- -- 91
2020-03-04 21:00:00 13.3 15 Oeste 20 Sudoeste 0 -- -- 91
2020-03-04 20:00:00 13.8 13 Oeste 20 Oeste 0 -- -- 88
2020-03-04 19:00:00 14.5 17 Oeste 25 Oeste 0 -- -- 85
2020-03-04 18:00:00 15.2 15 Oeste 23 Oeste 0 -- -- 80
2020-03-04 17:00:00 16.4 14 Oeste 29 Oeste 0 -- -- 71
2020-03-04 16:00:00 15.9 21 Oeste 27 Oeste 0 -- -- 72
2020-03-04 15:00:00 16.4 15 Noroeste 31 Oeste 0 -- -- 70
2020-03-04 14:00:00 15.5 18 Oeste 32 Oeste 0 -- -- 75
2020-03-04 13:00:00 14.5 21 Oeste 31 Oeste 0 -- -- 81
2020-03-04 12:00:00 13.8 23 Oeste 30 Oeste 0 -- -- 82
2020-03-04 11:00:00 13.1 20 Oeste 30 Oeste 0 -- -- 88
2020-03-04 10:00:00 12.3 15 Oeste 19 Oeste 0 -- -- 95
2020-03-04 09:00:00 11.5 12 Sudoeste 17 Sudoeste 0 -- -- 99
2020-03-04 08:00:00 11.3 15 Oeste 24 Oeste 0 -- -- 98
2020-03-04 07:00:00 11.1 14 Sudoeste 20 Sudoeste 0 -- -- 99
2020-03-04 06:00:00 11.1 15 Oeste 30 Oeste 0 -- -- 99
2020-03-04 05:00:00 10.9 24 Oeste 33 Oeste 0 -- -- 99
2020-03-04 04:00:00 10.9 24 Oeste 32 Oeste 0 -- -- 100
2020-03-04 03:00:00 10.8 21 Oeste 31 Oeste 0 -- -- 99
2020-03-04 02:00:00 11.3 15 Oeste 24 Oeste 0 -- -- 98
2020-03-04 01:00:00 11.8 16 Oeste 24 Oeste 0 -- -- 98
2020-03-04 00:00:00 12 15 Oeste 26 Oeste 0 -- -- 99
2020-03-03 23:00:00 11.4 6 Sudoeste 31 Oeste 0 -- -- 97
2020-03-03 22:00:00 12.2 26 Oeste 36 Oeste 0 -- -- 96
2020-03-03 21:00:00 12.1 26 Oeste 34 Oeste 0 -- -- 96
2020-03-03 20:00:00 13 18 Sudoeste 39 Oeste 0 -- -- 91
2020-03-03 19:00:00 14 15 Sudoeste 46 Oeste 0 -- -- 89
2020-03-03 18:00:00 14.8 35 Oeste 48 Oeste 0 -- -- 86
2020-03-03 17:00:00 15 36 Oeste 48 Oeste 0 -- -- 85
2020-03-03 16:00:00 15 32 Oeste 46 Oeste 0 -- -- 84
2020-03-03 15:00:00 15 39 Oeste 49 Oeste 0 -- -- 83
2020-03-03 14:00:00 15 31 Oeste 47 Sudoeste 0 -- -- 83
2020-03-03 13:00:00 12.9 28 Oeste 48 Oeste 0 -- -- 90
2020-03-03 12:00:00 12.6 34 Oeste 51 Oeste 0 -- -- 91
2020-03-03 11:00:00 11.5 33 Oeste 52 Oeste 0 -- -- 94
2020-03-03 10:00:00 10.8 32 Oeste 42 Sudoeste 0 -- -- 91
2020-03-03 09:00:00 9.7 28 Oeste 37 Oeste 0 -- -- 91
2020-03-03 08:00:00 9.1 33 Oeste 41 Oeste 0 -- -- 90
2020-03-03 07:00:00 8.3 26 Oeste 36 Oeste 0 -- -- 93
2020-03-03 06:00:00 8.3 24 Oeste 35 Oeste 0 -- -- 94
2020-03-03 05:00:00 7.3 8 Sudoeste 24 Sudoeste 0 -- -- 96
2020-03-03 04:00:00 6.8 19 Sudoeste 23 Oeste 0 -- -- 95
2020-03-03 03:00:00 7 14 Oeste 22 Oeste 0 -- -- 93
2020-03-03 02:00:00 7.2 9 Sudoeste 18 Oeste 0 -- -- 91
2020-03-03 01:00:00 7.3 12 Oeste 17 Oeste 0 -- -- 89
2020-03-03 00:00:00 7.1 17 Oeste 23 Oeste 0 -- -- 88
2020-03-02 23:00:00 7 11 Sudoeste 24 Oeste 0 -- -- 85
2020-03-02 22:00:00 7.5 20 Oeste 26 Oeste 0 -- -- 83
2020-03-02 21:00:00 7.7 12 Noroeste 13 Noroeste 0 -- -- 74
2020-03-02 20:00:00 8.3 10 Noroeste 31 Noroeste 0 -- -- 70
2020-03-02 19:00:00 9.7 26 Noroeste 51 Noroeste 0 -- -- 64
2020-03-02 18:00:00 11.3 38 Noroeste 55 Noroeste 0 -- -- 62
2020-03-02 17:00:00 11.6 33 Noroeste 53 Noroeste 0 -- -- 64
2020-03-02 16:00:00 12.5 44 Noroeste 62 Oeste 0 -- -- 62
2020-03-02 15:00:00 13.1 44 Noroeste 61 Noroeste 0 -- -- 59
2020-03-02 14:00:00 13.1 43 Noroeste 65 Noroeste 0 -- -- 63
2020-03-02 13:00:00 12.7 44 Noroeste 63 Oeste 0 -- -- 68
2020-03-02 12:00:00 11.9 44 Noroeste 59 Oeste 0 -- -- 72
2020-03-02 11:00:00 11.2 36 Oeste 54 Oeste 0 -- -- 75
2020-03-02 10:00:00 10.7 38 Oeste 50 Oeste 0 -- -- 80
2020-03-02 09:00:00 9.8 31 Oeste 45 Oeste 0 -- -- 88
2020-03-02 08:00:00 9.9 33 Oeste 63 Oeste 0 -- -- 86
2020-03-02 07:00:00 11.5 45 Oeste 67 Oeste 0 -- -- 86
2020-03-02 06:00:00 12.7 41 Oeste 61 Oeste 0 -- -- 94
2020-03-02 05:00:00 12.6 47 Oeste 67 Oeste 0.2 -- -- 96
2020-03-02 04:00:00 12.6 41 Sudoeste 65 Sudoeste 0 -- -- 93
2020-03-02 03:00:00 12.3 37 Sudoeste 57 Oeste 0.8 -- -- 93
2020-03-02 02:00:00 12.1 31 Sudoeste 44 Sudoeste 0.4 -- -- 96
2020-03-02 01:00:00 12.3 28 Sudoeste 49 Sudoeste 0 -- -- 92
2020-03-02 00:00:00 12.3 35 Sudoeste 52 Sudoeste 0.2 -- -- 92
2020-03-01 23:00:00 12.5 31 Sudoeste 47 Sudoeste 1 -- -- 98
2020-03-01 22:00:00 12.5 27 Sudoeste 39 Sudoeste 0.6 -- -- 96
2020-03-01 21:00:00 12.7 25 Sudoeste 37 Sudoeste 0 -- -- 95
2020-03-01 20:00:00 13.3 27 Sudoeste 48 Sudoeste 0 -- -- 90
2020-03-01 19:00:00 13.9 23 Sudoeste 47 Sudoeste 0 -- -- 88
2020-03-01 18:00:00 14.3 25 Sudoeste 45 Oeste 0 -- -- 89
2020-03-01 17:00:00 14.5 28 Sudoeste 45 Sudoeste 0.4 -- -- 92
2020-03-01 16:00:00 15.1 35 Sudoeste 45 Sudoeste 2 -- -- 87
2020-03-01 15:00:00 14.8 24 Oeste 36 Sudoeste 0 -- -- 93
2020-03-01 14:00:00 14.5 30 Oeste 42 Oeste 0.2 -- -- 92
2020-03-01 13:00:00 13.8 19 Sudoeste 31 Sudoeste 0.6 -- -- 95
2020-03-01 12:00:00 12.6 19 Sudoeste 27 Sudoeste 0 -- -- 96
2020-03-01 11:00:00 12.2 19 Sudoeste 30 Sudoeste 0 -- -- 94
2020-03-01 10:00:00 11.4 21 Sudoeste 27 Sudoeste 0 -- -- 94
2020-03-01 09:00:00 10 17 Sudoeste 23 Sudoeste 0 -- -- 93
2020-03-01 08:00:00 9.2 17 Sudoeste 31 Sudoeste 0 -- -- 93
2020-03-01 07:00:00 9.7 22 Sudoeste 30 Sudoeste 0 -- -- 95
2020-03-01 06:00:00 9.3 12 Sudoeste 27 Sudoeste 0 -- -- 99
2020-03-01 05:00:00 9.4 20 Sudoeste 40 Oeste 0.2 -- -- 99
2020-03-01 04:00:00 9.9 22 Sudoeste 29 Sudoeste 0 -- -- 91
2020-03-01 03:00:00 9.9 18 Oeste 28 Oeste 0 -- -- 91
2020-03-01 02:00:00 9.9 22 Oeste 29 Oeste 0 -- -- 89
2020-03-01 01:00:00 10 20 Oeste 26 Oeste 0 -- -- 88
2020-03-01 00:00:00 9.7 18 Oeste 27 Oeste 0 -- -- 86
2020-02-29 23:00:00 9.3 14 Sudoeste 24 Sudoeste 0 -- -- 83
2020-02-29 22:00:00 9.3 19 Sudoeste 23 Oeste 0 -- -- 81
2020-02-29 21:00:00 10.2 18 Oeste 27 Oeste 0 -- -- 76
2020-02-29 20:00:00 10.8 23 Oeste 28 Oeste 0 -- -- 72
2020-02-29 19:00:00 11.9 22 Oeste 38 Oeste 0 -- -- 71
2020-02-29 18:00:00 13.1 27 Oeste 40 Oeste 0 -- -- 65
2020-02-29 17:00:00 14 34 Oeste 45 Oeste 0 -- -- 68
2020-02-29 16:00:00 15.5 34 Oeste 54 Oeste 0.2 -- -- 64
2020-02-29 15:00:00 14.5 30 Oeste 44 Oeste 0 -- -- 74
2020-02-29 14:00:00 13.6 34 Oeste 45 Oeste 0 -- -- 80
2020-02-29 13:00:00 12.8 30 Oeste 43 Oeste 0.4 -- -- 95
2020-02-29 12:00:00 11.9 26 Sur 43 Sur 0 -- -- 98
2020-02-29 11:00:00 10.9 31 Sudoeste 41 Sudoeste 0 -- -- 99
2020-02-29 10:00:00 10.3 28 Sur 39 Sur 0 -- -- 99
2020-02-29 09:00:00 10 26 Sur 33 Sur 0 -- -- 98
2020-02-29 08:00:00 9.6 21 Sudoeste 27 Sudoeste 0 -- -- 98
2020-02-29 07:00:00 9 18 Sudoeste 23 Sudoeste 0 -- -- 98
2020-02-29 06:00:00 8.1 13 Sudoeste 17 Sudoeste 0 -- -- 96
2020-02-29 05:00:00 8.5 12 Sur 19 Oeste 0 -- -- 91
2020-02-29 04:00:00 8.5 17 Sudoeste 28 Sudoeste 0 -- -- 91
2020-02-29 03:00:00 8.1 12 Sudoeste 35 Oeste 0 -- -- 92
2020-02-29 02:00:00 8.2 20 Oeste 25 Oeste 0 -- -- 86
2020-02-29 01:00:00 9.4 15 Oeste 31 Oeste 0 -- -- 77
2020-02-29 00:00:00 9.7 17 Oeste 28 Oeste 0 -- -- 74